sensor_id;sensor_type;location;lat;lon;timestamp;temperature;humidity
22337;DHT22;14992;50.844;4.418;2022-08-21T00:01:42;20.70;99.90
22337;DHT22;14992;50.844;4.418;2022-08-21T00:04:31;20.70;99.90
22337;DHT22;14992;50.844;4.418;2022-08-21T00:07:31;20.70;99.90
22337;DHT22;14992;50.844;4.418;2022-08-21T00:10:19;20.70;99.90
22337;DHT22;14992;50.844;4.418;2022-08-21T00:13:02;20.90;99.90
22337;DHT22;14992;50.844;4.418;2022-08-21T00:15:51;20.60;99.90
22337;DHT22;14992;50.844;4.418;2022-08-21T00:18:32;20.70;99.90
22337;DHT22;14992;50.844;4.418;2022-08-21T00:21:28;20.60;99.90
22337;DHT22;14992;50.844;4.418;2022-08-21T00:24:18;20.60;99.90
22337;DHT22;14992;50.844;4.418;2022-08-21T00:27:13;20.30;99.90
22337;DHT22;14992;50.844;4.418;2022-08-21T00:29:55;20.30;99.90
22337;DHT22;14992;50.844;4.418;2022-08-21T00:32:56;20.40;99.90
22337;DHT22;14992;50.844;4.418;2022-08-21T00:35:53;20.30;99.90
22337;DHT22;14992;50.844;4.418;2022-08-21T00:38:48;20.10;99.90
22337;DHT22;14992;50.844;4.418;2022-08-21T00:41:31;20.20;99.90
22337;DHT22;14992;50.844;4.418;2022-08-21T00:44:20;20.30;99.90
22337;DHT22;14992;50.844;4.418;2022-08-21T00:47:01;20.20;99.90
22337;DHT22;14992;50.844;4.418;2022-08-21T00:49:50;20.10;99.90
22337;DHT22;14992;50.844;4.418;2022-08-21T00:52:33;20.20;99.90
22337;DHT22;14992;50.844;4.418;2022-08-21T00:55:23;20.00;99.90
22337;DHT22;14992;50.844;4.418;2022-08-21T00:58:08;20.00;99.90
22337;DHT22;14992;50.844;4.418;2022-08-21T01:00:59;20.00;99.90
22337;DHT22;14992;50.844;4.418;2022-08-21T01:03:42;20.00;99.90
22337;DHT22;14992;50.844;4.418;2022-08-21T01:06:38;20.00;99.90
22337;DHT22;14992;50.844;4.418;2022-08-21T01:09:19;20.00;99.90
22337;DHT22;14992;50.844;4.418;2022-08-21T01:12:15;19.90;99.90
22337;DHT22;14992;50.844;4.418;2022-08-21T01:15:07;20.00;99.90
22337;DHT22;14992;50.844;4.418;2022-08-21T01:18:06;19.90;99.90
22337;DHT22;14992;50.844;4.418;2022-08-21T01:21:02;19.70;99.90
22337;DHT22;14992;50.844;4.418;2022-08-21T01:23:58;19.70;99.90
22337;DHT22;14992;50.844;4.418;2022-08-21T01:26:40;19.60;99.90
22337;DHT22;14992;50.844;4.418;2022-08-21T01:29:34;19.40;99.90
22337;DHT22;14992;50.844;4.418;2022-08-21T01:32:18;19.50;99.90
22337;DHT22;14992;50.844;4.418;2022-08-21T01:35:08;19.60;99.90
22337;DHT22;14992;50.844;4.418;2022-08-21T01:38:05;19.60;99.90
22337;DHT22;14992;50.844;4.418;2022-08-21T01:40:47;19.70;99.90
22337;DHT22;14992;50.844;4.418;2022-08-21T01:43:36;19.70;99.90
22337;DHT22;14992;50.844;4.418;2022-08-21T01:46:31;19.70;99.90
22337;DHT22;14992;50.844;4.418;2022-08-21T01:49:12;19.70;99.90
22337;DHT22;14992;50.844;4.418;2022-08-21T01:52:08;19.40;99.90
22337;DHT22;14992;50.844;4.418;2022-08-21T01:54:52;19.50;99.90
22337;DHT22;14992;50.844;4.418;2022-08-21T01:57:47;19.50;99.90
22337;DHT22;14992;50.844;4.418;2022-08-21T02:00:29;19.60;99.90
22337;DHT22;14992;50.844;4.418;2022-08-21T02:03:26;19.60;99.90
22337;DHT22;14992;50.844;4.418;2022-08-21T02:06:13;19.70;99.90
22337;DHT22;14992;50.844;4.418;2022-08-21T02:09:03;19.60;99.90
22337;DHT22;14992;50.844;4.418;2022-08-21T02:11:46;19.40;99.90
22337;DHT22;14992;50.844;4.418;2022-08-21T02:14:34;19.40;99.90
22337;DHT22;14992;50.844;4.418;2022-08-21T02:17:23;19.40;99.90
22337;DHT22;14992;50.844;4.418;2022-08-21T02:20:05;19.40;99.90
22337;DHT22;14992;50.844;4.418;2022-08-21T02:22:53;19.20;99.90
22337;DHT22;14992;50.844;4.418;2022-08-21T02:25:35;19.20;99.90
22337;DHT22;14992;50.844;4.418;2022-08-21T02:28:28;19.20;99.90
22337;DHT22;14992;50.844;4.418;2022-08-21T02:31:09;19.20;99.90
22337;DHT22;14992;50.844;4.418;2022-08-21T02:33:58;19.20;99.90
22337;DHT22;14992;50.844;4.418;2022-08-21T02:36:53;19.30;99.90
22337;DHT22;14992;50.844;4.418;2022-08-21T02:39:34;19.10;99.90
22337;DHT22;14992;50.844;4.418;2022-08-21T02:42:30;19.10;99.90
22337;DHT22;14992;50.844;4.418;2022-08-21T02:45:13;19.20;99.90
22337;DHT22;14992;50.844;4.418;2022-08-21T02:48:11;19.10;99.90
22337;DHT22;14992;50.844;4.418;2022-08-21T02:50:56;19.20;99.90
22337;DHT22;14992;50.844;4.418;2022-08-21T02:53:52;19.30;99.90
22337;DHT22;14992;50.844;4.418;2022-08-21T02:56:33;19.40;99.90
22337;DHT22;14992;50.844;4.418;2022-08-21T02:59:22;19.50;99.90
22337;DHT22;14992;50.844;4.418;2022-08-21T03:02:05;19.40;99.90
22337;DHT22;14992;50.844;4.418;2022-08-21T03:04:53;19.30;99.90
22337;DHT22;14992;50.844;4.418;2022-08-21T03:07:41;19.20;99.90
22337;DHT22;14992;50.844;4.418;2022-08-21T03:10:24;19.20;99.90
22337;DHT22;14992;50.844;4.418;2022-08-21T03:13:12;19.10;99.90
22337;DHT22;14992;50.844;4.418;2022-08-21T03:15:55;19.10;99.90
22337;DHT22;14992;50.844;4.418;2022-08-21T03:18:45;19.10;99.90
22337;DHT22;14992;50.844;4.418;2022-08-21T03:21:41;19.00;99.90
22337;DHT22;14992;50.844;4.418;2022-08-21T03:24:22;19.00;99.90
22337;DHT22;14992;50.844;4.418;2022-08-21T03:27:23;19.10;99.90
22337;DHT22;14992;50.844;4.418;2022-08-21T03:30:06;19.00;99.90
22337;DHT22;14992;50.844;4.418;2022-08-21T03:33:02;18.80;99.90
22337;DHT22;14992;50.844;4.418;2022-08-21T03:35:59;18.70;99.90
22337;DHT22;14992;50.844;4.418;2022-08-21T03:38:55;18.70;99.90
22337;DHT22;14992;50.844;4.418;2022-08-21T03:41:36;18.90;99.90
22337;DHT22;14992;50.844;4.418;2022-08-21T03:44:25;18.90;99.90
22337;DHT22;14992;50.844;4.418;2022-08-21T03:47:07;19.00;99.90
22337;DHT22;14992;50.844;4.418;2022-08-21T03:49:56;18.80;99.90
22337;DHT22;14992;50.844;4.418;2022-08-21T03:52:39;18.90;99.90
22337;DHT22;14992;50.844;4.418;2022-08-21T03:55:27;18.80;99.90
22337;DHT22;14992;50.844;4.418;2022-08-21T03:58:08;18.90;99.90
22337;DHT22;14992;50.844;4.418;2022-08-21T04:00:59;19.00;99.90
22337;DHT22;14992;50.844;4.418;2022-08-21T04:03:41;19.00;99.90
22337;DHT22;14992;50.844;4.418;2022-08-21T04:06:36;19.10;99.90
22337;DHT22;14992;50.844;4.418;2022-08-21T04:09:19;19.00;99.90
22337;DHT22;14992;50.844;4.418;2022-08-21T04:12:14;19.00;99.90
22337;DHT22;14992;50.844;4.418;2022-08-21T04:14:55;18.80;99.90
22337;DHT22;14992;50.844;4.418;2022-08-21T04:17:51;18.70;99.90
22337;DHT22;14992;50.844;4.418;2022-08-21T04:20:33;18.70;99.90
22337;DHT22;14992;50.844;4.418;2022-08-21T04:23:29;18.70;99.90
22337;DHT22;14992;50.844;4.418;2022-08-21T04:26:12;18.60;99.90
22337;DHT22;14992;50.844;4.418;2022-08-21T04:29:07;18.60;99.90
22337;DHT22;14992;50.844;4.418;2022-08-21T04:31:50;18.80;99.90
22337;DHT22;14992;50.844;4.418;2022-08-21T04:34:39;18.80;99.90
22337;DHT22;14992;50.844;4.418;2022-08-21T04:37:34;18.70;99.90
22337;DHT22;14992;50.844;4.418;2022-08-21T04:40:25;18.60;99.90
22337;DHT22;14992;50.844;4.418;2022-08-21T04:43:09;18.60;99.90
22337;DHT22;14992;50.844;4.418;2022-08-21T04:45:58;18.70;99.90
22337;DHT22;14992;50.844;4.418;2022-08-21T04:48:53;18.70;99.90
22337;DHT22;14992;50.844;4.418;2022-08-21T04:51:37;18.80;99.90
22337;DHT22;14992;50.844;4.418;2022-08-21T04:54:26;18.70;99.90
22337;DHT22;14992;50.844;4.418;2022-08-21T04:57:08;18.80;99.90
22337;DHT22;14992;50.844;4.418;2022-08-21T05:00:00;18.80;99.90
22337;DHT22;14992;50.844;4.418;2022-08-21T05:02:47;18.80;99.90
22337;DHT22;14992;50.844;4.418;2022-08-21T05:05:36;18.60;99.90
22337;DHT22;14992;50.844;4.418;2022-08-21T05:08:19;18.70;99.90
22337;DHT22;14992;50.844;4.418;2022-08-21T05:11:04;18.80;99.90
22337;DHT22;14992;50.844;4.418;2022-08-21T05:13:53;18.80;99.90
22337;DHT22;14992;50.844;4.418;2022-08-21T05:16:49;18.80;99.90
22337;DHT22;14992;50.844;4.418;2022-08-21T05:19:31;18.80;99.90
22337;DHT22;14992;50.844;4.418;2022-08-21T05:22:26;18.80;99.90
22337;DHT22;14992;50.844;4.418;2022-08-21T05:25:08;18.80;99.90
22337;DHT22;14992;50.844;4.418;2022-08-21T05:28:05;18.80;99.90
22337;DHT22;14992;50.844;4.418;2022-08-21T05:30:40;18.80;99.90
22337;DHT22;14992;50.844;4.418;2022-08-21T05:33:36;18.80;99.90
22337;DHT22;14992;50.844;4.418;2022-08-21T05:36:35;18.80;99.90
22337;DHT22;14992;50.844;4.418;2022-08-21T05:39:17;19.00;99.90
22337;DHT22;14992;50.844;4.418;2022-08-21T05:42:26;19.00;99.90
22337;DHT22;14992;50.844;4.418;2022-08-21T05:45:08;18.80;99.90
22337;DHT22;14992;50.844;4.418;2022-08-21T05:48:18;19.10;99.90
22337;DHT22;14992;50.844;4.418;2022-08-21T05:51:07;19.10;99.90
22337;DHT22;14992;50.844;4.418;2022-08-21T05:53:55;19.00;99.90
22337;DHT22;14992;50.844;4.418;2022-08-21T05:56:50;18.90;99.90
22337;DHT22;14992;50.844;4.418;2022-08-21T05:59:32;18.90;99.90
22337;DHT22;14992;50.844;4.418;2022-08-21T06:02:20;19.00;99.90
22337;DHT22;14992;50.844;4.418;2022-08-21T06:05:03;18.90;99.90
22337;DHT22;14992;50.844;4.418;2022-08-21T06:08:18;19.00;99.90
22337;DHT22;14992;50.844;4.418;2022-08-21T06:11:01;18.80;99.90
22337;DHT22;14992;50.844;4.418;2022-08-21T06:13:56;18.90;99.90
22337;DHT22;14992;50.844;4.418;2022-08-21T06:16:39;19.00;99.90
22337;DHT22;14992;50.844;4.418;2022-08-21T06:19:28;19.10;99.90
22337;DHT22;14992;50.844;4.418;2022-08-21T06:22:09;19.20;99.90
22337;DHT22;14992;50.844;4.418;2022-08-21T06:24:59;19.30;99.90
22337;DHT22;14992;50.844;4.418;2022-08-21T06:27:42;19.20;99.90
22337;DHT22;14992;50.844;4.418;2022-08-21T06:30:31;19.10;99.90
22337;DHT22;14992;50.844;4.418;2022-08-21T06:33:14;19.20;99.90
22337;DHT22;14992;50.844;4.418;2022-08-21T06:36:02;19.30;99.90
22337;DHT22;14992;50.844;4.418;2022-08-21T06:38:58;19.10;99.90
22337;DHT22;14992;50.844;4.418;2022-08-21T06:42:06;19.30;99.90
22337;DHT22;14992;50.844;4.418;2022-08-21T06:44:48;19.10;99.90
22337;DHT22;14992;50.844;4.418;2022-08-21T06:47:43;19.10;99.90
22337;DHT22;14992;50.844;4.418;2022-08-21T06:50:24;19.20;99.90
22337;DHT22;14992;50.844;4.418;2022-08-21T06:53:20;19.30;99.90
22337;DHT22;14992;50.844;4.418;2022-08-21T06:56:02;19.40;99.90
22337;DHT22;14992;50.844;4.418;2022-08-21T06:58:58;19.30;99.90
22337;DHT22;14992;50.844;4.418;2022-08-21T07:01:41;19.40;99.90
22337;DHT22;14992;50.844;4.418;2022-08-21T07:04:29;19.70;99.90
22337;DHT22;14992;50.844;4.418;2022-08-21T07:07:10;19.80;99.90
22337;DHT22;14992;50.844;4.418;2022-08-21T07:09:59;19.70;99.90
22337;DHT22;14992;50.844;4.418;2022-08-21T07:12:51;19.50;99.90
22337;DHT22;14992;50.844;4.418;2022-08-21T07:15:43;19.70;99.90
22337;DHT22;14992;50.844;4.418;2022-08-21T07:18:43;19.70;99.90
22337;DHT22;14992;50.844;4.418;2022-08-21T07:21:24;19.90;99.90
22337;DHT22;14992;50.844;4.418;2022-08-21T07:24:13;19.90;99.90
22337;DHT22;14992;50.844;4.418;2022-08-21T07:26:55;20.00;99.90
22337;DHT22;14992;50.844;4.418;2022-08-21T07:29:49;19.90;99.90
22337;DHT22;14992;50.844;4.418;2022-08-21T07:32:32;19.90;99.90
22337;DHT22;14992;50.844;4.418;2022-08-21T07:35:21;20.00;99.90
22337;DHT22;14992;50.844;4.418;2022-08-21T07:38:18;20.10;99.90
22337;DHT22;14992;50.844;4.418;2022-08-21T07:41:01;20.30;99.90
22337;DHT22;14992;50.844;4.418;2022-08-21T07:43:52;20.40;99.90
22337;DHT22;14992;50.844;4.418;2022-08-21T07:46:51;20.60;99.90
22337;DHT22;14992;50.844;4.418;2022-08-21T07:49:34;20.50;99.90
22337;DHT22;14992;50.844;4.418;2022-08-21T07:52:22;20.50;99.90
22337;DHT22;14992;50.844;4.418;2022-08-21T07:55:06;20.70;99.90
22337;DHT22;14992;50.844;4.418;2022-08-21T07:57:55;20.80;99.90
22337;DHT22;14992;50.844;4.418;2022-08-21T08:00:43;20.90;99.90
22337;DHT22;14992;50.844;4.418;2022-08-21T08:03:24;21.00;99.90
22337;DHT22;14992;50.844;4.418;2022-08-21T08:06:14;20.80;99.90
22337;DHT22;14992;50.844;4.418;2022-08-21T08:08:56;20.70;99.90
22337;DHT22;14992;50.844;4.418;2022-08-21T08:11:52;20.80;99.90
22337;DHT22;14992;50.844;4.418;2022-08-21T08:14:33;20.90;99.90
22337;DHT22;14992;50.844;4.418;2022-08-21T08:17:29;21.10;99.90
22337;DHT22;14992;50.844;4.418;2022-08-21T08:20:12;21.00;99.90
22337;DHT22;14992;50.844;4.418;2022-08-21T08:23:09;21.00;99.90
22337;DHT22;14992;50.844;4.418;2022-08-21T08:25:51;21.00;99.90
22337;DHT22;14992;50.844;4.418;2022-08-21T08:28:47;21.10;99.90
22337;DHT22;14992;50.844;4.418;2022-08-21T08:31:28;21.00;99.90
22337;DHT22;14992;50.844;4.418;2022-08-21T08:34:17;21.20;99.90
22337;DHT22;14992;50.844;4.418;2022-08-21T08:37:12;21.40;99.90
22337;DHT22;14992;50.844;4.418;2022-08-21T08:39:59;21.50;99.90
22337;DHT22;14992;50.844;4.418;2022-08-21T08:42:47;21.40;99.90
22337;DHT22;14992;50.844;4.418;2022-08-21T08:45:37;21.30;99.90
22337;DHT22;14992;50.844;4.418;2022-08-21T08:48:41;21.30;99.90
22337;DHT22;14992;50.844;4.418;2022-08-21T08:51:42;21.50;99.90
22337;DHT22;14992;50.844;4.418;2022-08-21T08:54:28;21.40;99.90
22337;DHT22;14992;50.844;4.418;2022-08-21T08:57:20;21.50;99.90
22337;DHT22;14992;50.844;4.418;2022-08-21T09:00:08;21.50;99.90
22337;DHT22;14992;50.844;4.418;2022-08-21T09:02:58;21.50;99.90
22337;DHT22;14992;50.844;4.418;2022-08-21T09:05:43;21.70;99.90
22337;DHT22;14992;50.844;4.418;2022-08-21T09:08:43;21.70;99.90
22337;DHT22;14992;50.844;4.418;2022-08-21T09:11:49;21.90;99.90
22337;DHT22;14992;50.844;4.418;2022-08-21T09:14:49;22.00;99.90
22337;DHT22;14992;50.844;4.418;2022-08-21T09:18:03;21.90;99.90
22337;DHT22;14992;50.844;4.418;2022-08-21T09:20:58;22.00;99.90
22337;DHT22;14992;50.844;4.418;2022-08-21T09:24:01;21.90;99.90
22337;DHT22;14992;50.844;4.418;2022-08-21T09:26:49;22.00;99.90
22337;DHT22;14992;50.844;4.418;2022-08-21T09:29:43;22.10;99.90
22337;DHT22;14992;50.844;4.418;2022-08-21T09:32:28;22.20;99.90
22337;DHT22;14992;50.844;4.418;2022-08-21T09:35:19;22.30;99.90
22337;DHT22;14992;50.844;4.418;2022-08-21T09:38:25;22.50;99.90
22337;DHT22;14992;50.844;4.418;2022-08-21T09:41:09;22.50;99.90
22337;DHT22;14992;50.844;4.418;2022-08-21T09:44:05;22.70;99.90
22337;DHT22;14992;50.844;4.418;2022-08-21T09:46:51;22.70;99.90
22337;DHT22;14992;50.844;4.418;2022-08-21T09:49:42;22.70;99.90
22337;DHT22;14992;50.844;4.418;2022-08-21T09:52:25;23.20;99.90
22337;DHT22;14992;50.844;4.418;2022-08-21T09:55:21;23.50;99.90
22337;DHT22;14992;50.844;4.418;2022-08-21T09:58:18;23.50;99.90
22337;DHT22;14992;50.844;4.418;2022-08-21T10:01:13;23.60;99.90
22337;DHT22;14992;50.844;4.418;2022-08-21T10:04:03;23.30;99.90
22337;DHT22;14992;50.844;4.418;2022-08-21T10:07:09;23.20;99.90
22337;DHT22;14992;50.844;4.418;2022-08-21T10:10:01;23.20;99.90
22337;DHT22;14992;50.844;4.418;2022-08-21T10:13:09;23.20;99.90
22337;DHT22;14992;50.844;4.418;2022-08-21T10:16:04;23.20;99.90
22337;DHT22;14992;50.844;4.418;2022-08-21T10:19:15;23.40;99.90
22337;DHT22;14992;50.844;4.418;2022-08-21T10:22:09;23.10;99.90
22337;DHT22;14992;50.844;4.418;2022-08-21T10:25:05;23.00;99.90
22337;DHT22;14992;50.844;4.418;2022-08-21T10:27:56;23.20;99.90
22337;DHT22;14992;50.844;4.418;2022-08-21T10:30:58;23.40;99.90
22337;DHT22;14992;50.844;4.418;2022-08-21T10:33:45;23.50;99.90
22337;DHT22;14992;50.844;4.418;2022-08-21T10:36:54;23.30;99.90
22337;DHT22;14992;50.844;4.418;2022-08-21T10:40:02;23.50;99.90
22337;DHT22;14992;50.844;4.418;2022-08-21T10:43:08;23.40;99.90
22337;DHT22;14992;50.844;4.418;2022-08-21T10:45:57;23.20;99.90
22337;DHT22;14992;50.844;4.418;2022-08-21T10:48:58;23.40;99.90
22337;DHT22;14992;50.844;4.418;2022-08-21T10:51:45;23.40;99.90
22337;DHT22;14992;50.844;4.418;2022-08-21T10:54:43;23.60;99.90
22337;DHT22;14992;50.844;4.418;2022-08-21T10:57:36;23.70;99.90
22337;DHT22;14992;50.844;4.418;2022-08-21T11:00:34;23.80;99.90
22337;DHT22;14992;50.844;4.418;2022-08-21T11:03:21;23.70;99.90
22337;DHT22;14992;50.844;4.418;2022-08-21T11:06:11;23.70;99.90
22337;DHT22;14992;50.844;4.418;2022-08-21T11:09:07;23.90;99.90
22337;DHT22;14992;50.844;4.418;2022-08-21T11:12:10;24.10;99.90
22337;DHT22;14992;50.844;4.418;2022-08-21T11:15:00;24.30;99.90
22337;DHT22;14992;50.844;4.418;2022-08-21T11:18:17;24.30;99.90
22337;DHT22;14992;50.844;4.418;2022-08-21T11:21:06;24.50;99.90
22337;DHT22;14992;50.844;4.418;2022-08-21T11:24:16;24.60;99.90
22337;DHT22;14992;50.844;4.418;2022-08-21T11:27:21;24.70;99.90
22337;DHT22;14992;50.844;4.418;2022-08-21T11:30:06;24.80;99.90
22337;DHT22;14992;50.844;4.418;2022-08-21T11:33:12;24.60;99.90
22337;DHT22;14992;50.844;4.418;2022-08-21T11:36:02;24.50;99.90
22337;DHT22;14992;50.844;4.418;2022-08-21T11:39:10;24.30;99.90
22337;DHT22;14992;50.844;4.418;2022-08-21T11:42:02;24.40;99.90
22337;DHT22;14992;50.844;4.418;2022-08-21T11:45:03;24.30;99.90
22337;DHT22;14992;50.844;4.418;2022-08-21T11:47:56;24.10;99.90
22337;DHT22;14992;50.844;4.418;2022-08-21T11:50:47;24.10;99.90
22337;DHT22;14992;50.844;4.418;2022-08-21T11:53:34;24.40;99.90
22337;DHT22;14992;50.844;4.418;2022-08-21T11:56:42;24.60;99.90
22337;DHT22;14992;50.844;4.418;2022-08-21T11:59:35;24.60;99.90
22337;DHT22;14992;50.844;4.418;2022-08-21T12:02:36;24.20;99.90
22337;DHT22;14992;50.844;4.418;2022-08-21T12:05:25;24.40;99.90
22337;DHT22;14992;50.844;4.418;2022-08-21T12:08:28;24.30;99.90
22337;DHT22;14992;50.844;4.418;2022-08-21T12:11:24;24.40;99.90
22337;DHT22;14992;50.844;4.418;2022-08-21T12:14:16;24.40;99.90
22337;DHT22;14992;50.844;4.418;2022-08-21T12:17:18;24.40;99.90
22337;DHT22;14992;50.844;4.418;2022-08-21T12:20:01;24.40;99.90
22337;DHT22;14992;50.844;4.418;2022-08-21T12:23:04;24.80;99.90
22337;DHT22;14992;50.844;4.418;2022-08-21T12:26:23;24.80;99.90
22337;DHT22;14992;50.844;4.418;2022-08-21T12:29:12;24.80;99.90
22337;DHT22;14992;50.844;4.418;2022-08-21T12:32:23;24.90;99.90
22337;DHT22;14992;50.844;4.418;2022-08-21T12:35:10;25.10;99.90
22337;DHT22;14992;50.844;4.418;2022-08-21T12:38:14;24.90;99.90
22337;DHT22;14992;50.844;4.418;2022-08-21T12:41:05;25.00;99.90
22337;DHT22;14992;50.844;4.418;2022-08-21T12:44:00;25.30;99.90
22337;DHT22;14992;50.844;4.418;2022-08-21T12:46:58;25.40;99.90
22337;DHT22;14992;50.844;4.418;2022-08-21T12:49:53;25.50;99.90
22337;DHT22;14992;50.844;4.418;2022-08-21T12:52:55;25.50;99.90
22337;DHT22;14992;50.844;4.418;2022-08-21T12:56:01;25.20;99.90
22337;DHT22;14992;50.844;4.418;2022-08-21T12:59:02;25.00;99.90
22337;DHT22;14992;50.844;4.418;2022-08-21T13:01:47;25.10;99.90
22337;DHT22;14992;50.844;4.418;2022-08-21T13:04:38;25.30;99.90
22337;DHT22;14992;50.844;4.418;2022-08-21T13:07:25;25.60;99.90
22337;DHT22;14992;50.844;4.418;2022-08-21T13:10:19;25.50;99.90
22337;DHT22;14992;50.844;4.418;2022-08-21T13:13:03;25.70;99.90
22337;DHT22;14992;50.844;4.418;2022-08-21T13:16:05;25.70;99.50
22337;DHT22;14992;50.844;4.418;2022-08-21T13:18:57;25.60;99.60
22337;DHT22;14992;50.844;4.418;2022-08-21T13:21:53;25.60;99.90
22337;DHT22;14992;50.844;4.418;2022-08-21T13:24:56;25.50;99.90
22337;DHT22;14992;50.844;4.418;2022-08-21T13:28:01;25.80;99.50
22337;DHT22;14992;50.844;4.418;2022-08-21T13:30:47;25.70;98.80
22337;DHT22;14992;50.844;4.418;2022-08-21T13:33:44;25.80;98.80
22337;DHT22;14992;50.844;4.418;2022-08-21T13:36:36;25.90;98.10
22337;DHT22;14992;50.844;4.418;2022-08-21T13:39:19;25.70;99.00
22337;DHT22;14992;50.844;4.418;2022-08-21T13:42:11;25.90;99.20
22337;DHT22;14992;50.844;4.418;2022-08-21T13:44:53;25.80;99.70
22337;DHT22;14992;50.844;4.418;2022-08-21T13:47:42;25.80;99.90
22337;DHT22;14992;50.844;4.418;2022-08-21T13:50:25;25.80;99.70
22337;DHT22;14992;50.844;4.418;2022-08-21T13:53:23;25.50;99.40
22337;DHT22;14992;50.844;4.418;2022-08-21T13:56:05;25.50;99.90
22337;DHT22;14992;50.844;4.418;2022-08-21T13:59:03;25.60;99.10
22337;DHT22;14992;50.844;4.418;2022-08-21T14:01:51;25.50;98.70
22337;DHT22;14992;50.844;4.418;2022-08-21T14:04:54;25.30;99.10
22337;DHT22;14992;50.844;4.418;2022-08-21T14:07:50;25.40;99.30
22337;DHT22;14992;50.844;4.418;2022-08-21T14:10:42;25.20;99.90
22337;DHT22;14992;50.844;4.418;2022-08-21T14:13:40;25.40;99.50
22337;DHT22;14992;50.844;4.418;2022-08-21T14:16:25;25.30;99.90
22337;DHT22;14992;50.844;4.418;2022-08-21T14:19:20;25.40;99.90
22337;DHT22;14992;50.844;4.418;2022-08-21T14:22:01;25.30;99.70
22337;DHT22;14992;50.844;4.418;2022-08-21T14:25:13;25.30;99.90
22337;DHT22;14992;50.844;4.418;2022-08-21T14:28:06;25.50;99.90
22337;DHT22;14992;50.844;4.418;2022-08-21T14:30:52;25.60;99.90
22337;DHT22;14992;50.844;4.418;2022-08-21T14:33:47;25.30;99.90
22337;DHT22;14992;50.844;4.418;2022-08-21T14:36:58;25.30;99.90
22337;DHT22;14992;50.844;4.418;2022-08-21T14:39:53;25.20;99.90
22337;DHT22;14992;50.844;4.418;2022-08-21T14:42:48;25.20;99.90
22337;DHT22;14992;50.844;4.418;2022-08-21T14:45:31;25.20;99.90
22337;DHT22;14992;50.844;4.418;2022-08-21T14:48:27;25.40;99.90
22337;DHT22;14992;50.844;4.418;2022-08-21T14:51:04;25.80;99.70
22337;DHT22;14992;50.844;4.418;2022-08-21T14:53:59;25.70;99.90
22337;DHT22;14992;50.844;4.418;2022-08-21T14:56:40;25.90;99.70
22337;DHT22;14992;50.844;4.418;2022-08-21T14:59:34;26.00;98.80
22337;DHT22;14992;50.844;4.418;2022-08-21T15:02:15;26.10;98.70
22337;DHT22;14992;50.844;4.418;2022-08-21T15:05:05;26.10;98.90
22337;DHT22;14992;50.844;4.418;2022-08-21T15:07:50;25.90;98.40
22337;DHT22;14992;50.844;4.418;2022-08-21T15:10:38;25.80;99.10
22337;DHT22;14992;50.844;4.418;2022-08-21T15:13:40;26.10;98.30
22337;DHT22;14992;50.844;4.418;2022-08-21T15:16:35;26.20;97.60
22337;DHT22;14992;50.844;4.418;2022-08-21T15:19:17;26.20;97.10
22337;DHT22;14992;50.844;4.418;2022-08-21T15:22:11;25.90;97.80
22337;DHT22;14992;50.844;4.418;2022-08-21T15:25:02;26.00;98.10
22337;DHT22;14992;50.844;4.418;2022-08-21T15:27:58;26.00;97.70
22337;DHT22;14992;50.844;4.418;2022-08-21T15:30:41;25.90;97.60
22337;DHT22;14992;50.844;4.418;2022-08-21T15:33:37;25.90;98.00
22337;DHT22;14992;50.844;4.418;2022-08-21T15:36:25;25.90;97.60
22337;DHT22;14992;50.844;4.418;2022-08-21T15:39:20;25.90;99.20
22337;DHT22;14992;50.844;4.418;2022-08-21T15:42:05;26.10;98.30
22337;DHT22;14992;50.844;4.418;2022-08-21T15:44:55;26.20;98.00
22337;DHT22;14992;50.844;4.418;2022-08-21T15:47:38;26.10;98.20
22337;DHT22;14992;50.844;4.418;2022-08-21T15:50:28;25.80;98.00
22337;DHT22;14992;50.844;4.418;2022-08-21T15:53:10;25.70;98.10
22337;DHT22;14992;50.844;4.418;2022-08-21T15:56:00;25.60;99.30
22337;DHT22;14992;50.844;4.418;2022-08-21T15:58:44;25.70;98.50
22337;DHT22;14992;50.844;4.418;2022-08-21T16:01:39;25.50;99.90
22337;DHT22;14992;50.844;4.418;2022-08-21T16:04:24;25.60;98.60
22337;DHT22;14992;50.844;4.418;2022-08-21T16:07:20;25.60;98.10
22337;DHT22;14992;50.844;4.418;2022-08-21T16:10:01;25.30;99.10
22337;DHT22;14992;50.844;4.418;2022-08-21T16:13:00;25.30;99.80
22337;DHT22;14992;50.844;4.418;2022-08-21T16:15:43;25.30;99.20
22337;DHT22;14992;50.844;4.418;2022-08-21T16:18:39;25.40;99.10
22337;DHT22;14992;50.844;4.418;2022-08-21T16:21:35;25.40;98.90
22337;DHT22;14992;50.844;4.418;2022-08-21T16:24:18;25.30;98.70
22337;DHT22;14992;50.844;4.418;2022-08-21T16:27:13;25.20;98.20
22337;DHT22;14992;50.844;4.418;2022-08-21T16:30:00;25.30;97.70
22337;DHT22;14992;50.844;4.418;2022-08-21T16:32:59;25.30;97.20
22337;DHT22;14992;50.844;4.418;2022-08-21T16:35:41;25.20;97.70
22337;DHT22;14992;50.844;4.418;2022-08-21T16:38:37;25.10;98.30
22337;DHT22;14992;50.844;4.418;2022-08-21T16:41:22;25.10;98.90
22337;DHT22;14992;50.844;4.418;2022-08-21T16:44:11;25.00;99.10
22337;DHT22;14992;50.844;4.418;2022-08-21T16:46:53;24.90;99.30
22337;DHT22;14992;50.844;4.418;2022-08-21T16:49:43;25.10;99.40
22337;DHT22;14992;50.844;4.418;2022-08-21T16:52:26;25.20;99.50
22337;DHT22;14992;50.844;4.418;2022-08-21T16:55:15;25.00;99.90
22337;DHT22;14992;50.844;4.418;2022-08-21T16:57:57;25.00;99.70
22337;DHT22;14992;50.844;4.418;2022-08-21T17:00:46;24.90;98.80
22337;DHT22;14992;50.844;4.418;2022-08-21T17:03:33;24.80;99.90
22337;DHT22;14992;50.844;4.418;2022-08-21T17:06:33;25.00;99.90
22337;DHT22;14992;50.844;4.418;2022-08-21T17:09:08;25.40;98.80
22337;DHT22;14992;50.844;4.418;2022-08-21T17:12:04;25.10;99.30
22337;DHT22;14992;50.844;4.418;2022-08-21T17:14:46;25.00;99.90
22337;DHT22;14992;50.844;4.418;2022-08-21T17:17:41;25.00;99.70
22337;DHT22;14992;50.844;4.418;2022-08-21T17:20:23;25.20;98.90
22337;DHT22;14992;50.844;4.418;2022-08-21T17:23:20;25.00;98.90
22337;DHT22;14992;50.844;4.418;2022-08-21T17:26:02;24.90;99.40
22337;DHT22;14992;50.844;4.418;2022-08-21T17:28:57;24.80;99.90
22337;DHT22;14992;50.844;4.418;2022-08-21T17:31:43;24.80;99.80
22337;DHT22;14992;50.844;4.418;2022-08-21T17:34:31;24.80;99.70
22337;DHT22;14992;50.844;4.418;2022-08-21T17:37:20;24.90;99.40
22337;DHT22;14992;50.844;4.418;2022-08-21T17:40:07;24.60;99.90
22337;DHT22;14992;50.844;4.418;2022-08-21T17:42:56;24.80;99.90
22337;DHT22;14992;50.844;4.418;2022-08-21T17:45:38;24.80;99.90
22337;DHT22;14992;50.844;4.418;2022-08-21T17:48:25;24.60;99.90
22337;DHT22;14992;50.844;4.418;2022-08-21T17:51:08;24.50;99.90
22337;DHT22;14992;50.844;4.418;2022-08-21T17:53:55;24.50;99.90
22337;DHT22;14992;50.844;4.418;2022-08-21T17:56:52;24.70;99.90
22337;DHT22;14992;50.844;4.418;2022-08-21T17:59:35;24.50;99.90